Time;durP1;ratioP1;P1;durP2;ratioP2;P2;SDS_P1;SDS_P2;PMS_P1;PMS_P2;Temp;Humidity;BMP_temperature;BMP_pressure;BME280_temperature;BME280_humidity;BME280_pressure;Samples;Min_cycle;Max_cycle;Signal;HPM_P1;HPM_P2
2024/03/17 00:00:39;;;;;;;5.70;1.63;;;6.50;28.60;;;;;;2621483;46;20786;31
2024/03/17 00:03:13;;;;;;;7.22;2.38;;;6.50;29.30;;;;;;2602958;54;20832;31
2024/03/17 00:05:44;;;;;;;8.15;1.70;;;6.40;30.10;;;;;;2602692;54;20719;31
2024/03/17 00:08:18;;;;;;;4.03;1.67;;;6.30;31.70;;;;;;2621174;46;20034;31
2024/03/17 00:10:51;;;;;;;6.68;1.60;;;6.40;32.30;;;;;;2602854;54;20030;31
2024/03/17 00:13:24;;;;;;;5.25;2.55;;;6.30;33.20;;;;;;2602911;54;20785;31
2024/03/17 00:15:58;;;;;;;5.53;1.80;;;6.30;33.50;;;;;;2602903;54;20086;31
2024/03/17 00:18:31;;;;;;;7.22;2.05;;;6.20;35.30;;;;;;2602727;54;20046;31
2024/03/17 00:21:04;;;;;;;8.95;2.20;;;6.10;38.10;;;;;;2621575;46;20814;31
2024/03/17 00:23:37;;;;;;;4.20;2.10;;;6.10;41.30;;;;;;2621526;46;20853;31
2024/03/17 00:26:08;;;;;;;9.00;2.10;;;6.10;43.70;;;;;;2602813;54;20034;31
2024/03/17 00:28:41;;;;;;;6.40;2.03;;;6.00;47.50;;;;;;2602722;54;20046;31
2024/03/17 00:31:15;;;;;;;6.30;1.75;;;6.10;50.70;;;;;;2772707;31;21570;31
2024/03/17 00:33:48;;;;;;;9.90;1.92;;;6.00;52.80;;;;;;2602758;54;20088;31
2024/03/17 00:36:20;;;;;;;6.37;1.93;;;6.00;53.60;;;;;;2602474;54;20034;31
2024/03/17 00:38:53;;;;;;;5.55;1.90;;;5.90;55.20;;;;;;2701309;39;21447;31
2024/03/17 00:41:24;;;;;;;10.88;3.20;;;5.90;56.40;;;;;;2700997;39;21375;31
2024/03/17 00:44:00;;;;;;;5.72;1.98;;;5.90;57.00;;;;;;2602533;54;20522;31
2024/03/17 00:46:34;;;;;;;6.60;2.20;;;5.80;56.90;;;;;;2602809;54;20537;31
2024/03/17 00:49:08;;;;;;;8.00;2.20;;;5.80;58.50;;;;;;2602543;54;20492;31
2024/03/17 00:51:39;;;;;;;4.38;2.10;;;5.80;60.40;;;;;;2621176;46;20891;31
2024/03/17 00:54:13;;;;;;;6.55;2.55;;;5.80;61.50;;;;;;2602355;54;20525;31
2024/03/17 00:56:44;;;;;;;6.05;1.83;;;5.70;63.30;;;;;;2602797;54;20037;31
2024/03/17 00:59:18;;;;;;;7.95;2.17;;;5.70;64.10;;;;;;2602868;54;20530;31
2024/03/17 01:01:52;;;;;;;3.65;1.80;;;5.70;66.10;;;;;;2621199;46;20026;31
2024/03/17 01:04:26;;;;;;;7.13;1.75;;;5.60;65.20;;;;;;2602674;54;20848;31
2024/03/17 01:06:57;;;;;;;4.53;1.63;;;5.60;65.50;;;;;;2701009;39;20543;31
2024/03/17 01:09:31;;;;;;;6.35;1.33;;;5.60;66.00;;;;;;2602632;54;20089;31
2024/03/17 01:12:01;;;;;;;5.85;2.05;;;5.60;67.30;;;;;;2602437;54;20850;31
2024/03/17 01:14:36;;;;;;;7.13;1.73;;;5.60;67.10;;;;;;2602568;54;20907;31
2024/03/17 01:17:09;;;;;;;6.25;2.30;;;5.50;69.00;;;;;;2602547;54;20034;31
2024/03/17 01:19:44;;;;;;;7.28;1.63;;;5.50;70.60;;;;;;2602655;54;20031;31
2024/03/17 01:22:15;;;;;;;8.70;2.08;;;5.50;71.10;;;;;;2602535;54;20953;31
2024/03/17 01:24:52;;;;;;;5.47;1.63;;;5.40;71.50;;;;;;2602714;54;20033;31
2024/03/17 01:27:25;;;;;;;7.75;1.95;;;5.40;71.30;;;;;;2602599;54;20031;31
2024/03/17 01:32:34;;;;;;;8.55;2.40;;;5.30;70.40;;;;;;2602524;54;20852;31
2024/03/17 01:35:06;;;;;;;5.00;2.50;;;5.30;71.10;;;;;;2602588;54;20580;31
2024/03/17 01:37:39;;;;;;;4.65;2.30;;;5.30;70.60;;;;;;2602485;54;20893;31
2024/03/17 01:40:12;;;;;;;10.17;2.07;;;5.20;71.70;;;;;;2602480;54;20076;31
2024/03/17 01:42:45;;;;;;;7.57;1.88;;;5.30;72.40;;;;;;2602441;54;20686;31
2024/03/17 01:45:27;;;;;;;8.20;2.63;;;5.20;73.70;;;;;;2602553;54;20747;31
2024/03/17 01:48:04;;;;;;;6.10;2.30;;;5.20;74.40;;;;;;2620942;47;20085;31
2024/03/17 01:50:36;;;;;;;7.83;2.70;;;5.20;75.20;;;;;;2602631;54;20777;31
2024/03/17 01:53:10;;;;;;;9.48;2.15;;;5.10;77.20;;;;;;2602627;54;20877;31
2024/03/17 01:55:42;;;;;;;8.45;1.95;;;5.10;77.50;;;;;;2602496;54;20026;31
2024/03/17 01:58:16;;;;;;;3.80;1.65;;;5.10;78.50;;;;;;2602592;54;20872;31
2024/03/17 02:00:47;;;;;;;5.15;2.05;;;5.00;79.10;;;;;;2602248;54;20034;31
2024/03/17 02:03:24;;;;;;;6.35;2.25;;;5.00;77.60;;;;;;2620981;47;20944;31
2024/03/17 02:05:56;;;;;;;7.57;2.20;;;5.00;78.40;;;;;;2602338;54;21472;31
2024/03/17 02:08:32;;;;;;;11.20;2.50;;;5.00;79.30;;;;;;2602362;54;20765;31
2024/03/17 02:11:05;;;;;;;4.70;2.20;;;4.90;80.60;;;;;;2602361;54;20850;31
2024/03/17 02:13:39;;;;;;;7.45;2.22;;;4.90;83.90;;;;;;2700810;39;20528;31
2024/03/17 02:16:10;;;;;;;7.10;2.20;;;4.80;85.70;;;;;;2602434;54;20027;31
2024/03/17 02:18:47;;;;;;;9.25;1.85;;;4.80;87.00;;;;;;2602544;54;20038;31
2024/03/17 02:21:17;;;;;;;6.03;1.92;;;4.70;87.50;;;;;;2602524;54;21559;31
2024/03/17 02:23:54;;;;;;;4.43;1.70;;;4.70;89.30;;;;;;2603250;54;20888;31
2024/03/17 02:26:25;;;;;;;;;;;4.60;90.30;;;;;;2603368;54;20033;31
2024/03/17 02:28:58;;;;;;;10.07;2.17;;;4.60;91.20;;;;;;2603331;54;19930;31
2024/03/17 02:31:28;;;;;;;4.47;1.35;;;4.60;91.60;;;;;;2603208;54;20052;31
2024/03/17 02:34:02;;;;;;;7.55;1.58;;;4.60;90.70;;;;;;2603171;54;20893;31
2024/03/17 02:36:32;;;;;;;3.80;1.50;;;4.50;86.40;;;;;;2603328;54;20904;31
2024/03/17 02:42:00;;;;;;;3.83;1.40;;;4.50;79.20;;;;;;2602912;54;20081;31
2024/03/17 02:44:33;;;;;;;4.10;1.37;;;4.40;79.20;;;;;;2603267;54;20073;31
2024/03/17 02:47:08;;;;;;;4.55;1.63;;;4.40;82.20;;;;;;2603158;54;20331;31
2024/03/17 02:49:43;;;;;;;5.10;1.43;;;4.40;84.50;;;;;;2603299;54;20035;31
2024/03/17 02:52:17;;;;;;;11.13;2.15;;;4.40;87.10;;;;;;2603132;54;20913;31
2024/03/17 02:54:53;;;;;;;8.67;1.73;;;4.40;89.80;;;;;;2603178;54;20026;31
2024/03/17 02:57:29;;;;;;;13.85;2.78;;;4.30;90.80;;;;;;2603126;54;20576;31
2024/03/17 03:00:04;;;;;;;5.60;1.40;;;4.30;90.50;;;;;;2701805;39;20500;31
2024/03/17 03:02:37;;;;;;;4.00;1.50;;;4.30;90.50;;;;;;2621269;46;20847;31
2024/03/17 03:05:10;;;;;;;7.70;2.10;;;4.30;91.40;;;;;;2603121;54;20033;31
2024/03/17 03:07:44;;;;;;;4.28;1.73;;;4.30;91.30;;;;;;2603027;54;20033;31
2024/03/17 03:10:20;;;;;;;4.70;1.97;;;4.20;90.60;;;;;;2621610;46;20030;31
2024/03/17 03:12:53;;;;;;;7.07;2.00;;;4.20;91.50;;;;;;2603167;54;20866;31
2024/03/17 03:15:26;;;;;;;5.40;1.70;;;4.20;91.50;;;;;;2621541;46;20932;31
2024/03/17 03:17:59;;;;;;;7.10;1.90;;;4.20;91.60;;;;;;2603274;54;20896;31
2024/03/17 03:20:32;;;;;;;4.82;2.10;;;4.20;91.60;;;;;;2602963;54;20053;31
2024/03/17 03:23:05;;;;;;;6.43;1.85;;;4.20;91.40;;;;;;2603152;54;20648;31
2024/03/17 03:25:41;;;;;;;5.97;2.20;;;4.10;92.40;;;;;;2701451;39;20403;31
2024/03/17 03:28:14;;;;;;;;;;;4.10;92.50;;;;;;2603368;54;21199;31
2024/03/17 03:30:48;;;;;;;10.15;1.88;;;4.10;92.40;;;;;;2621522;46;19985;31
2024/03/17 03:33:21;;;;;;;8.20;1.80;;;4.10;92.70;;;;;;2620929;46;20910;31
2024/03/17 03:35:55;;;;;;;10.43;1.90;;;4.10;92.80;;;;;;2602975;54;20561;31
2024/03/17 03:38:28;;;;;;;6.43;1.98;;;4.10;92.70;;;;;;2602955;54;20923;31
2024/03/17 03:41:09;;;;;;;7.53;1.92;;;4.00;93.00;;;;;;2603025;54;20923;31
2024/03/17 03:43:43;;;;;;;10.73;1.90;;;4.00;93.50;;;;;;2621489;46;20093;31
2024/03/17 03:46:16;;;;;;;7.37;2.00;;;4.00;93.90;;;;;;2621302;46;20030;31
2024/03/17 03:48:49;;;;;;;9.05;2.00;;;3.90;93.30;;;;;;2602667;54;20027;31
2024/03/17 03:51:22;;;;;;;6.97;1.60;;;3.90;94.40;;;;;;2602916;54;20022;31
2024/03/17 03:53:55;;;;;;;13.05;3.50;;;3.90;94.30;;;;;;2603030;54;21042;31
2024/03/17 03:56:32;;;;;;;7.60;2.03;;;3.90;95.50;;;;;;2603083;54;20027;31
2024/03/17 03:59:05;;;;;;;14.05;2.25;;;3.80;95.80;;;;;;2701555;39;20534;31
2024/03/17 04:01:39;;;;;;;5.50;1.90;;;3.80;95.90;;;;;;2602871;54;20026;31
2024/03/17 04:04:17;;;;;;;6.85;2.17;;;3.80;95.90;;;;;;2602829;54;20912;31
2024/03/17 04:06:51;;;;;;;6.18;1.92;;;3.80;95.60;;;;;;2603131;54;20565;31
2024/03/17 04:09:24;;;;;;;5.43;1.95;;;3.70;95.90;;;;;;2603055;54;20026;31
2024/03/17 04:12:00;;;;;;;7.45;2.17;;;3.70;96.30;;;;;;2603062;54;20026;31
2024/03/17 04:14:33;;;;;;;8.55;1.75;;;3.60;96.40;;;;;;2621183;46;20953;31
2024/03/17 04:17:07;;;;;;;11.98;2.28;;;3.60;96.70;;;;;;2602895;54;20022;31
2024/03/17 04:19:40;;;;;;;7.15;1.83;;;3.60;96.60;;;;;;2621324;46;20033;31
2024/03/17 04:22:13;;;;;;;5.90;1.95;;;3.60;97.30;;;;;;2602936;54;20932;31
2024/03/17 04:24:46;;;;;;;4.07;1.55;;;3.60;96.80;;;;;;2602936;54;20880;31
2024/03/17 04:27:23;;;;;;;6.60;1.48;;;3.60;96.50;;;;;;2602785;54;20049;31
2024/03/17 04:29:56;;;;;;;7.85;2.20;;;3.50;96.90;;;;;;2701529;39;20557;31
2024/03/17 04:32:30;;;;;;;8.60;1.95;;;3.50;97.70;;;;;;2621496;46;20956;31
2024/03/17 04:35:04;;;;;;;7.30;2.33;;;3.50;97.00;;;;;;2621510;46;20030;31
2024/03/17 04:37:39;;;;;;;8.75;2.25;;;3.50;96.90;;;;;;2602780;54;20037;31
2024/03/17 04:40:13;;;;;;;6.55;1.80;;;3.50;97.70;;;;;;2602855;54;20022;31
2024/03/17 04:42:47;;;;;;;6.75;1.60;;;3.50;97.50;;;;;;2602809;54;22644;31
2024/03/17 04:45:20;;;;;;;8.82;2.08;;;3.40;97.10;;;;;;2621011;46;20053;31
2024/03/17 04:47:54;;;;;;;2.97;1.33;;;3.40;97.10;;;;;;2621481;46;20034;31
2024/03/17 04:50:31;;;;;;;5.60;1.65;;;3.40;97.00;;;;;;2602905;54;21096;31
2024/03/17 04:53:06;;;;;;;5.20;1.45;;;3.40;96.80;;;;;;2621498;46;20876;31
2024/03/17 04:55:39;;;;;;;11.10;1.43;;;3.40;97.80;;;;;;2602924;54;20872;31
2024/03/17 04:58:15;;;;;;;7.57;1.40;;;3.40;97.80;;;;;;2621467;46;20102;31
2024/03/17 05:00:48;;;;;;;4.53;1.40;;;3.40;97.70;;;;;;2602903;54;20572;31
2024/03/17 05:03:24;;;;;;;9.98;2.38;;;3.30;97.50;;;;;;2602906;54;20239;31
2024/03/17 05:06:03;;;;;;;4.13;1.38;;;3.30;99.30;;;;;;2602870;54;20768;31
2024/03/17 05:08:38;;;;;;;10.32;1.70;;;3.30;99.90;;;;;;2602727;54;20034;31
2024/03/17 05:11:11;;;;;;;5.53;1.60;;;3.30;99.90;;;;;;2621385;46;20901;31
2024/03/17 05:13:48;;;;;;;8.53;1.53;;;3.30;99.80;;;;;;2602715;54;20772;31
2024/03/17 05:16:22;;;;;;;4.40;1.48;;;3.40;99.30;;;;;;2602898;54;20052;31
2024/03/17 05:18:55;;;;;;;8.77;1.60;;;3.40;99.30;;;;;;2602726;54;20034;31
2024/03/17 05:21:30;;;;;;;9.32;1.70;;;3.30;99.20;;;;;;2602889;54;20031;31
2024/03/17 05:24:04;;;;;;;6.43;1.58;;;3.40;99.90;;;;;;2620945;46;20089;31
2024/03/17 05:26:37;;;;;;;3.65;1.50;;;3.30;99.90;;;;;;2602806;54;20054;31
2024/03/17 05:29:07;;;;;;;7.22;1.40;;;3.30;99.90;;;;;;2621078;46;22596;31
2024/03/17 05:31:43;;;;;;;10.65;2.97;;;3.40;99.90;;;;;;2602730;54;20894;31
2024/03/17 05:34:16;;;;;;;;;;;3.40;99.80;;;;;;2701473;39;21318;31
2024/03/17 05:36:50;;;;;;;5.20;1.40;;;3.40;99.90;;;;;;2620935;47;20469;31
2024/03/17 05:39:23;;;;;;;6.20;1.90;;;3.40;98.70;;;;;;2620832;47;20800;31
2024/03/17 05:41:56;;;;;;;4.95;1.63;;;3.50;96.90;;;;;;2602655;54;20026;31
2024/03/17 05:44:29;;;;;;;7.68;1.58;;;3.60;95.90;;;;;;2602606;54;20030;31
2024/03/17 05:47:08;;;;;;;4.70;1.52;;;3.70;94.80;;;;;;2602583;54;20105;31
2024/03/17 05:49:42;;;;;;;6.22;1.90;;;3.70;94.10;;;;;;2602482;54;20854;31
2024/03/17 05:52:15;;;;;;;8.50;1.90;;;3.80;92.40;;;;;;2602423;54;20033;31
2024/03/17 05:54:48;;;;;;;8.93;1.50;;;3.90;91.10;;;;;;2621100;47;20031;31
2024/03/17 05:57:22;;;;;;;7.80;1.60;;;4.10;87.70;;;;;;2602952;54;20030;31
2024/03/17 05:59:56;;;;;;;6.37;1.43;;;4.30;82.90;;;;;;2603418;54;20910;31
2024/03/17 06:02:32;;;;;;;3.38;1.27;;;4.50;78.90;;;;;;2603564;54;20858;31
2024/03/17 06:05:05;;;;;;;7.93;1.63;;;5.00;99.90;;;;;;2720235;39;20516;31
2024/03/17 06:07:39;;;;;;;6.18;1.48;;;5.50;61.10;;;;;;2603122;54;20076;31
2024/03/17 06:10:12;;;;;;;7.75;1.77;;;5.90;43.60;;;;;;2603192;54;20964;31
2024/03/17 06:12:46;;;;;;;8.80;2.13;;;6.40;25.50;;;;;;2603429;54;20862;31
2024/03/17 06:15:20;;;;;;;9.50;2.17;;;6.70;6.10;;;;;;2621360;46;20872;31
2024/03/17 06:17:57;;;;;;;8.75;1.92;;;7.00;1.00;;;;;;2603342;54;20863;31
2024/03/17 06:20:30;;;;;;;6.17;1.17;;;7.30;1.00;;;;;;2621615;46;20038;31
2024/03/17 06:23:04;;;;;;;10.25;1.85;;;7.60;1.00;;;;;;2603366;54;20026;31
2024/03/17 06:25:42;;;;;;;6.35;1.20;;;7.80;1.00;;;;;;2603252;54;20846;31
2024/03/17 06:28:16;;;;;;;6.88;1.30;;;8.10;1.00;;;;;;2603136;54;20937;31
2024/03/17 06:30:59;;;;;;;8.07;1.50;;;8.30;99.90;;;;;;2603154;54;20030;31
2024/03/17 06:33:37;;;;;;;7.00;1.60;;;8.60;99.90;;;;;;2603256;54;20022;31
2024/03/17 06:36:11;;;;;;;3.70;0.80;;;8.80;99.90;;;;;;2603225;54;20945;31
2024/03/17 06:38:45;;;;;;;9.73;1.38;;;9.10;99.90;;;;;;2603153;54;20880;31
2024/03/17 06:41:18;;;;;;;6.38;1.10;;;9.30;1.00;;;;;;2603180;54;20034;31
2024/03/17 06:43:51;;;;;;;9.55;1.63;;;9.70;99.90;;;;;;2621697;46;20925;31
2024/03/17 06:46:24;;;;;;;6.03;1.30;;;9.90;99.90;;;;;;2603093;54;20026;31
2024/03/17 06:49:00;;;;;;;12.30;1.80;;;10.10;1.00;;;;;;2602970;54;20030;31
2024/03/17 06:51:35;;;;;;;12.02;1.20;;;10.30;99.90;;;;;;2603189;54;21128;31
2024/03/17 06:54:09;;;;;;;6.95;0.70;;;10.50;1.00;;;;;;2603050;54;20056;31
2024/03/17 06:56:42;;;;;;;9.38;1.30;;;10.60;99.90;;;;;;2602952;54;20094;31
2024/03/17 06:59:19;;;;;;;8.10;1.38;;;10.60;1.00;;;;;;2602864;54;20033;31
2024/03/17 07:01:52;;;;;;;7.93;1.15;;;10.60;99.90;;;;;;2602881;54;20896;31
2024/03/17 07:04:29;;;;;;;5.10;1.40;;;10.70;1.00;;;;;;2602957;54;20833;31
2024/03/17 07:07:02;;;;;;;9.82;2.25;;;10.90;1.00;;;;;;2603101;54;20085;31
2024/03/17 07:09:35;;;;;;;9.45;1.10;;;11.00;99.90;;;;;;2602753;54;20893;31
2024/03/17 07:12:09;;;;;;;8.90;1.60;;;11.10;99.90;;;;;;2621689;46;20904;31
2024/03/17 07:14:42;;;;;;;7.87;1.73;;;11.20;1.00;;;;;;2603058;54;20576;31
2024/03/17 07:17:15;;;;;;;12.27;2.00;;;11.10;1.00;;;;;;2602850;54;20780;31
2024/03/17 07:19:52;;;;;;;7.75;1.00;;;10.90;99.90;;;;;;2603140;54;20919;31
2024/03/17 07:22:26;;;;;;;6.70;1.90;;;10.60;99.90;;;;;;2602895;54;20506;31
2024/03/17 07:25:01;;;;;;;7.65;1.33;;;10.60;99.90;;;;;;2602954;54;20031;31
2024/03/17 07:27:37;;;;;;;7.38;1.25;;;10.40;99.90;;;;;;2602903;54;20026;31
2024/03/17 07:30:12;;;;;;;6.75;1.48;;;10.50;99.90;;;;;;2603100;54;20026;31
2024/03/17 07:32:46;;;;;;;10.35;1.30;;;10.30;99.90;;;;;;2602973;54;20862;31
2024/03/17 07:35:22;;;;;;;10.00;1.70;;;10.10;99.90;;;;;;2602869;54;20754;31
2024/03/17 07:37:55;;;;;;;8.00;1.40;;;10.20;99.90;;;;;;2602967;54;20857;31
2024/03/17 07:40:31;;;;;;;10.07;2.63;;;10.00;99.90;;;;;;2602927;54;20921;31
2024/03/17 07:43:05;;;;;;;;;;;9.70;99.90;;;;;;2603250;54;20867;31
2024/03/17 07:45:38;;;;;;;6.30;1.30;;;9.40;99.90;;;;;;2603021;54;20821;31
2024/03/17 07:48:11;;;;;;;7.70;1.58;;;9.00;99.90;;;;;;2603041;54;20093;31
2024/03/17 07:50:56;;;;;;;6.43;1.07;;;8.90;91.10;;;;;;2602702;54;20134;31
2024/03/17 07:53:38;;;;;;;4.10;0.90;;;8.90;99.90;;;;;;2602783;54;20230;31
2024/03/17 07:56:12;;;;;;;7.43;1.20;;;9.00;1.00;;;;;;2701175;39;20474;31
2024/03/17 07:58:47;;;;;;;12.65;1.02;;;8.90;1.00;;;;;;2621317;46;20037;31
2024/03/17 08:01:22;;;;;;;11.33;1.93;;;8.70;1.00;;;;;;2621203;46;20157;31
2024/03/17 08:03:57;;;;;;;9.07;1.27;;;8.70;1.00;;;;;;2602738;54;20053;31
2024/03/17 08:06:34;;;;;;;5.32;1.00;;;8.50;19.20;;;;;;2602721;54;20022;31
2024/03/17 08:09:09;;;;;;;7.30;1.35;;;8.60;99.90;;;;;;2602791;54;20868;31
2024/03/17 08:11:46;;;;;;;10.10;1.20;;;8.70;99.90;;;;;;2602687;54;20038;31
2024/03/17 08:14:20;;;;;;;7.30;1.30;;;8.90;61.30;;;;;;2602709;54;21747;31
2024/03/17 08:16:54;;;;;;;8.73;0.85;;;9.10;99.90;;;;;;2602121;54;20033;31
2024/03/17 08:19:28;;;;;;;9.87;1.47;;;9.20;36.90;;;;;;2621173;46;20026;31
2024/03/17 08:22:06;;;;;;;7.70;0.77;;;9.20;1.00;;;;;;2621109;46;20031;31
2024/03/17 08:24:40;;;;;;;7.10;1.27;;;9.20;99.90;;;;;;2602931;54;20907;31
2024/03/17 08:27:15;;;;;;;7.05;0.90;;;9.00;99.90;;;;;;2602725;54;20030;31
2024/03/17 08:29:48;;;;;;;7.43;1.20;;;8.90;99.90;;;;;;2620948;46;20077;31
2024/03/17 08:32:23;;;;;;;13.95;2.13;;;8.90;99.90;;;;;;2602779;54;20033;31
2024/03/17 08:34:56;;;;;;;6.70;1.60;;;9.10;99.90;;;;;;2602385;54;20030;31
2024/03/17 08:37:33;;;;;;;5.35;0.90;;;9.20;99.90;;;;;;2602834;54;20925;31
2024/03/17 08:40:10;;;;;;;7.28;1.00;;;9.00;52.00;;;;;;2602717;54;20109;31
2024/03/17 08:42:44;;;;;;;12.00;2.85;;;9.20;1.00;;;;;;2602762;54;20916;31
2024/03/17 08:45:18;;;;;;;8.18;0.68;;;9.40;1.00;;;;;;2602587;54;20038;31
2024/03/17 08:47:55;;;;;;;7.85;1.15;;;9.30;99.90;;;;;;2621079;46;20030;31
2024/03/17 08:50:37;;;;;;;5.20;1.20;;;9.30;99.90;;;;;;2602825;54;20023;31
2024/03/17 08:53:13;;;;;;;4.30;0.50;;;9.20;99.90;;;;;;2620843;46;20901;31
2024/03/17 08:55:47;;;;;;;6.80;0.90;;;9.60;99.90;;;;;;2621235;46;20864;31
2024/03/17 08:58:20;;;;;;;6.50;1.05;;;10.20;99.90;;;;;;2602698;54;20853;31
2024/03/17 09:00:54;;;;;;;10.70;1.02;;;10.30;99.90;;;;;;2602593;54;20030;31
2024/03/17 09:03:37;;;;;;;8.70;1.10;;;10.10;1.00;;;;;;2621371;46;20023;31
2024/03/17 09:06:20;;;;;;;4.70;0.80;;;9.80;1.00;;;;;;2602592;54;20950;31
2024/03/17 09:09:03;;;;;;;11.23;1.60;;;10.00;1.00;;;;;;2602444;54;20026;31
2024/03/17 09:11:42;;;;;;;6.80;1.15;;;10.40;1.00;;;;;;2719269;39;21658;31
2024/03/17 09:14:15;;;;;;;5.65;0.80;;;10.50;1.00;;;;;;2602560;54;20568;31
2024/03/17 09:16:48;;;;;;;6.73;0.80;;;10.40;1.00;;;;;;2620859;46;20063;31
2024/03/17 09:19:22;;;;;;;5.97;0.90;;;10.20;1.00;;;;;;2602449;54;20026;31
2024/03/17 09:21:55;;;;;;;4.30;0.95;;;10.00;99.90;;;;;;2602611;54;20885;31
2024/03/17 09:24:28;;;;;;;3.90;0.80;;;9.80;99.90;;;;;;2602518;54;20023;31
2024/03/17 09:30:05;;;;;;;9.20;2.53;;;9.70;1.00;;;;;;2601862;54;20034;31
2024/03/17 09:32:47;;;;;;;8.98;1.30;;;9.80;1.00;;;;;;2602008;54;20918;31
2024/03/17 09:38:04;;;;;;;14.73;5.43;;;9.80;99.90;;;;;;2602441;54;20825;31
2024/03/17 09:40:38;;;;;;;12.43;6.18;;;9.60;99.90;;;;;;2602612;54;20915;31
2024/03/17 09:43:13;;;;;;;7.95;3.75;;;9.70;99.90;;;;;;2620993;47;20074;31
2024/03/17 09:45:54;;;;;;;4.60;1.67;;;10.10;99.90;;;;;;2700793;39;20391;31
2024/03/17 09:48:31;;;;;;;9.15;3.33;;;10.40;99.90;;;;;;2602234;54;20925;31
2024/03/17 09:51:06;;;;;;;5.68;1.10;;;10.90;99.90;;;;;;2601652;54;20873;31
2024/03/17 09:53:41;;;;;;;2.80;0.80;;;11.20;99.90;;;;;;2602251;54;20030;31
2024/03/17 09:59:18;;;;;;;5.95;0.98;;;11.80;1.90;;;;;;2602208;54;20030;31
2024/03/17 10:01:59;;;;;;;3.50;0.50;;;11.60;1.00;;;;;;2602457;54;20765;31
2024/03/17 10:04:35;;;;;;;4.32;0.95;;;11.60;1.00;;;;;;2620694;47;20089;31
2024/03/17 10:09:50;;;;;;;7.45;1.65;;;12.00;1.00;;;;;;2602230;54;21113;31
2024/03/17 10:12:33;;;;;;;7.50;1.00;;;12.20;1.00;;;;;;2601777;54;20057;31
2024/03/17 10:15:10;;;;;;;4.05;0.77;;;12.60;1.00;;;;;;2602385;54;20076;31
2024/03/17 10:17:46;;;;;;;5.80;1.00;;;12.70;1.00;;;;;;2610900;47;20031;31
2024/03/17 10:20:23;;;;;;;7.35;0.80;;;12.40;99.90;;;;;;2602398;54;20864;31
2024/03/17 10:23:05;;;;;;;6.35;0.75;;;11.90;99.90;;;;;;2601739;54;20018;31
2024/03/17 10:25:42;;;;;;;5.38;0.98;;;11.60;99.90;;;;;;2700811;39;22332;31
2024/03/17 10:28:17;;;;;;;4.80;0.70;;;11.30;99.90;;;;;;2602150;54;20085;31
2024/03/17 10:31:00;;;;;;;5.50;0.90;;;11.10;99.90;;;;;;2602297;54;20561;31
2024/03/17 10:33:37;;;;;;;4.30;0.80;;;11.10;99.90;;;;;;2602166;54;20030;31
2024/03/17 10:36:20;;;;;;;9.00;1.02;;;11.30;99.90;;;;;;2620509;47;20037;31
2024/03/17 10:38:55;;;;;;;6.45;0.90;;;11.50;99.90;;;;;;2620628;47;20030;31
2024/03/17 10:41:32;;;;;;;6.32;0.82;;;11.70;99.90;;;;;;2602076;54;20027;31
2024/03/17 10:44:06;;;;;;;7.35;0.82;;;11.70;99.90;;;;;;2602513;54;20090;31
2024/03/17 10:46:39;;;;;;;8.55;1.40;;;11.90;99.90;;;;;;2719856;39;20524;31
2024/03/17 10:49:16;;;;;;;5.78;1.35;;;12.00;99.90;;;;;;2603225;54;20077;31
2024/03/17 10:51:50;;;;;;;7.07;0.73;;;12.00;99.90;;;;;;2603011;54;20036;31
2024/03/17 10:54:28;;;;;;;9.13;0.90;;;12.00;99.90;;;;;;2719756;39;21435;31
2024/03/17 10:57:09;;;;;;;5.20;0.85;;;11.90;99.90;;;;;;2621599;46;20905;31
2024/03/17 10:59:44;;;;;;;7.20;0.80;;;11.90;99.90;;;;;;2602985;54;20774;31
2024/03/17 11:02:25;;;;;;;6.07;0.80;;;11.90;99.90;;;;;;2621592;46;20058;31
2024/03/17 11:05:03;;;;;;;2.83;0.88;;;11.90;99.90;;;;;;2602977;54;20849;31
2024/03/17 11:07:38;;;;;;;3.17;1.02;;;11.70;99.90;;;;;;2602905;54;20766;31
2024/03/17 11:10:13;;;;;;;6.30;1.13;;;11.70;99.90;;;;;;2603121;54;20031;31
2024/03/17 11:12:47;;;;;;;5.40;0.82;;;12.00;99.90;;;;;;2602896;54;20902;31
2024/03/17 11:15:43;;;;;;;5.63;0.90;;;12.20;99.90;;;;;;2720005;39;20512;31
2024/03/17 11:18:30;;;;;;;8.65;1.52;;;12.30;99.90;;;;;;2603145;54;20037;31
2024/03/17 11:21:14;;;;;;;5.83;1.27;;;12.20;99.90;;;;;;2621520;46;20082;31
2024/03/17 11:24:00;;;;;;;6.20;1.40;;;12.20;99.90;;;;;;2603001;54;20080;31
2024/03/17 11:26:35;;;;;;;4.20;1.13;;;12.10;99.90;;;;;;2603003;54;20085;31
2024/03/17 11:29:09;;;;;;;7.37;1.60;;;12.10;99.90;;;;;;2603058;54;21196;31
2024/03/17 11:31:44;;;;;;;5.43;1.60;;;12.10;99.90;;;;;;2602797;54;20864;31
2024/03/17 11:34:48;;;;;;;4.13;1.27;;;12.20;99.90;;;;;;2602599;54;20929;31
2024/03/17 11:37:38;;;;;;;8.65;1.40;;;12.30;99.90;;;;;;2602011;54;20771;31
2024/03/17 11:40:30;;;;;;;3.85;0.57;;;12.40;99.90;;;;;;2601884;39;21062;31
2024/03/17 11:43:07;;;;;;;9.35;1.80;;;12.40;95.00;;;;;;2620228;46;20995;31
2024/03/17 11:45:39;;;;;;;4.35;0.95;;;12.40;94.30;;;;;;2620445;46;20046;31
2024/03/17 11:48:16;;;;;;;13.45;1.80;;;12.30;77.40;;;;;;2620151;46;20113;31
2024/03/17 11:50:48;;;;;;;4.47;0.85;;;12.20;82.80;;;;;;2601565;54;20465;31
2024/03/17 11:53:21;;;;;;;4.90;0.68;;;12.00;70.10;;;;;;2601489;54;20920;31
2024/03/17 11:55:55;;;;;;;6.15;0.90;;;11.70;56.90;;;;;;2601455;54;20919;31
2024/03/17 11:58:28;;;;;;;4.75;0.75;;;11.80;86.80;;;;;;2602149;39;21105;31
2024/03/17 12:01:00;;;;;;;2.63;0.70;;;11.70;90.20;;;;;;2601862;54;20038;31
2024/03/17 12:03:33;;;;;;;7.70;0.80;;;11.50;63.30;;;;;;2601936;54;20485;31
2024/03/17 12:06:08;;;;;;;9.25;0.93;;;11.40;74.70;;;;;;2601996;54;20873;31
2024/03/17 12:08:38;;;;;;;7.80;1.83;;;11.20;87.50;;;;;;2602067;54;20068;31
2024/03/17 12:11:21;;;;;;;6.43;0.70;;;11.20;77.90;;;;;;2603608;31;21109;31
2024/03/17 12:13:55;;;;;;;4.63;0.75;;;11.20;83.60;;;;;;2602003;54;20932;31
2024/03/17 12:16:26;;;;;;;2.60;0.80;;;11.10;61.00;;;;;;2614763;46;20078;31
2024/03/17 12:19:09;;;;;;;4.27;0.63;;;11.10;59.80;;;;;;2772692;31;20416;31
2024/03/17 12:21:43;;;;;;;6.55;0.70;;;11.10;60.30;;;;;;2602784;54;20030;31
2024/03/17 12:24:20;;;;;;;5.35;0.80;;;11.20;62.00;;;;;;2602853;54;20881;31
2024/03/17 12:26:55;;;;;;;4.65;0.60;;;11.30;45.80;;;;;;2602832;54;20745;31
2024/03/17 12:29:32;;;;;;;4.88;1.35;;;11.50;55.30;;;;;;2602760;54;20031;31
2024/03/17 12:32:05;;;;;;;4.50;0.80;;;11.50;38.00;;;;;;2602981;54;20030;31
2024/03/17 12:34:39;;;;;;;7.57;1.05;;;11.60;49.70;;;;;;2602786;54;20868;31
2024/03/17 12:37:16;;;;;;;6.40;1.38;;;11.40;28.00;;;;;;2602715;54;21319;31
2024/03/17 12:39:49;;;;;;;7.25;1.45;;;11.20;17.60;;;;;;2602661;54;20869;31
2024/03/17 12:42:24;;;;;;;6.80;1.20;;;11.00;12.30;;;;;;2602711;54;20026;31
2024/03/17 12:44:58;;;;;;;4.82;0.60;;;10.80;6.40;;;;;;2620880;46;20867;31
2024/03/17 12:47:31;;;;;;;3.60;1.10;;;10.50;14.70;;;;;;2602806;54;20073;31
2024/03/17 12:50:05;;;;;;;3.58;1.10;;;10.40;53.50;;;;;;2621061;46;20030;31
2024/03/17 12:52:37;;;;;;;3.57;0.60;;;10.40;56.00;;;;;;2620912;46;21826;31
2024/03/17 13:23:59;;;;;;;4.93;0.82;;;9.90;99.90;;;;;;2602407;54;20022;31
2024/03/17 13:26:33;;;;;;;3.20;0.50;;;10.00;99.90;;;;;;2602479;54;20030;31
2024/03/17 13:29:07;;;;;;;2.87;0.47;;;10.00;99.90;;;;;;2620749;46;21771;31
2024/03/17 13:31:41;;;;;;;5.55;0.70;;;10.10;99.90;;;;;;2620681;46;20237;31
2024/03/17 13:34:15;;;;;;;4.15;1.20;;;10.10;99.90;;;;;;2602333;54;20084;31
2024/03/17 13:36:55;;;;;;;5.70;0.70;;;10.10;99.90;;;;;;2602401;54;20033;31
2024/03/17 13:42:33;;;;;;;6.25;0.98;;;10.20;99.90;;;;;;2610299;54;20018;31
2024/03/17 13:48:09;;;;;;;7.93;1.30;;;10.30;99.90;;;;;;2610192;54;20026;31
2024/03/17 13:50:44;;;;;;;7.75;0.80;;;10.30;99.90;;;;;;2602350;54;20961;31
2024/03/17 13:53:18;;;;;;;3.70;0.55;;;10.30;99.90;;;;;;2602482;54;20876;31
2024/03/17 13:56:01;;;;;;;2.58;0.30;;;10.20;99.90;;;;;;2702088;39;20341;31
2024/03/17 13:58:38;;;;;;;2.70;0.50;;;10.10;94.90;;;;;;2602211;54;20826;31
2024/03/17 14:01:12;;;;;;;5.78;0.90;;;10.00;90.10;;;;;;2602407;54;20096;31
2024/03/17 14:03:49;;;;;;;6.47;1.13;;;10.00;95.90;;;;;;2602372;54;20897;31
2024/03/17 14:09:32;;;;;;;4.30;1.25;;;9.90;99.90;;;;;;2610086;54;20018;31
2024/03/17 14:20:53;;;;;;;4.03;0.70;;;9.80;99.90;;;;;;2602915;54;20023;31
2024/03/17 14:23:30;;;;;;;5.13;0.70;;;9.70;99.10;;;;;;2602841;54;20030;31
2024/03/17 14:26:13;;;;;;;2.60;0.60;;;9.70;94.70;;;;;;2602919;54;20908;31
2024/03/17 14:28:51;;;;;;;2.95;0.50;;;9.60;99.90;;;;;;2603038;54;20889;31
2024/03/17 14:31:29;;;;;;;4.45;0.98;;;9.50;99.90;;;;;;2645725;39;20899;31
2024/03/17 14:34:03;;;;;;;4.43;0.60;;;9.40;99.90;;;;;;2602832;54;20083;31
2024/03/17 14:39:44;;;;;;;4.87;0.60;;;9.30;99.10;;;;;;2602198;54;20404;31
2024/03/17 14:42:36;;;;;;;2.40;0.50;;;9.30;97.10;;;;;;2602033;54;20980;31
2024/03/17 14:45:13;;;;;;;6.35;0.90;;;9.20;87.80;;;;;;2602996;54;20965;31
2024/03/17 14:47:48;;;;;;;2.75;0.45;;;9.20;99.90;;;;;;2606298;46;21008;31
2024/03/17 14:50:24;;;;;;;5.43;0.68;;;9.20;99.90;;;;;;2602725;54;20477;31
2024/03/17 14:53:01;;;;;;;8.90;0.65;;;9.20;93.30;;;;;;2602794;54;20917;31